createdAt,value
2023-01-31T00:03:31.377Z,95639.41
2023-01-31T00:08:33.531Z,95644.63
2023-01-31T00:13:36.068Z,95662.25
2023-01-31T00:18:39.417Z,95675.56
2023-01-31T00:23:43.605Z,95674.94
2023-01-31T00:28:48.141Z,95654.97
2023-01-31T00:33:52.213Z,95658.53
2023-01-31T00:38:57.112Z,95657.16
2023-01-31T00:43:59.942Z,95669.09
2023-01-31T00:49:02.872Z,95638.50
2023-01-31T00:54:04.946Z,95660.47
2023-01-31T00:59:08.811Z,95666.81
2023-01-31T01:04:13.068Z,95667.44
2023-01-31T01:09:15.196Z,95632.22
2023-01-31T01:14:17.506Z,95632.22
2023-01-31T01:19:20.259Z,95630.38
2023-01-31T01:24:22.686Z,95643.09
2023-01-31T01:29:24.814Z,95638.56
2023-01-31T01:34:27.428Z,95667.38
2023-01-31T01:39:30.540Z,95662.47
2023-01-31T01:45:04.959Z,95666.94
2023-01-31T01:50:12.143Z,95658.88
2023-01-31T01:55:23.461Z,95644.22
2023-01-31T02:00:30.015Z,95651.06
2023-01-31T02:05:40.807Z,95645.28
2023-01-31T02:11:21.078Z,95620.28
2023-01-31T02:16:41.965Z,95619.53
2023-01-31T02:22:11.370Z,95608.44
2023-01-31T02:27:16.602Z,95626.63
2023-01-31T02:32:58.821Z,95628.00
2023-01-31T02:38:01.038Z,95607.34
2023-01-31T02:43:57.273Z,95617.25
2023-01-31T02:49:13.440Z,95609.84
2023-01-31T02:54:21.588Z,95616.72
2023-01-31T02:59:28.242Z,95608.94
2023-01-31T03:04:33.747Z,95586.44
2023-01-31T03:10:05.915Z,95617.88
2023-01-31T03:16:04.638Z,95607.56
2023-01-31T03:21:14.519Z,95636.81
2023-01-31T03:26:20.484Z,95632.69
2023-01-31T03:31:42.984Z,95625.47
2023-01-31T03:37:03.295Z,95623.59
2023-01-31T03:42:40.470Z,95644.22
2023-01-31T03:47:47.404Z,95626.53
2023-01-31T03:53:24.061Z,95633.53
2023-01-31T03:58:31.478Z,95650.81
2023-01-31T04:03:42.393Z,95659.25
2023-01-31T04:08:45.915Z,95649.00
2023-01-31T04:13:50.696Z,95632.28
2023-01-31T04:18:53.024Z,95669.97
2023-01-31T04:23:55.217Z,95659.84
2023-01-31T04:28:57.285Z,95651.97
2023-01-31T04:33:59.995Z,95644.88
2023-01-31T04:39:02.260Z,95673.41
2023-01-31T04:44:04.399Z,95664.72
2023-01-31T04:49:06.514Z,95677.91
2023-01-31T04:54:09.249Z,95681.66
2023-01-31T04:59:11.463Z,95699.91
2023-01-31T05:04:13.602Z,95687.59
2023-01-31T05:09:15.807Z,95692.69
2023-01-31T05:14:18.959Z,95701.28
2023-01-31T05:19:21.312Z,95699.50
2023-01-31T05:24:23.658Z,95696.69
2023-01-31T05:29:27.187Z,95683.16
2023-01-31T05:34:32.996Z,95708.09
2023-01-31T05:39:35.972Z,95698.84
2023-01-31T05:44:38.316Z,95710.69
2023-01-31T05:49:40.700Z,95672.31
2023-01-31T05:54:42.749Z,95734.22
2023-01-31T05:59:45.033Z,95729.97
2023-01-31T06:04:47.470Z,95728.75
2023-01-31T06:09:49.871Z,95716.63
2023-01-31T06:14:51.937Z,95751.00
2023-01-31T06:19:54.137Z,95740.38
2023-01-31T06:24:56.446Z,95754.50
2023-01-31T06:29:59.266Z,95734.56
2023-01-31T06:35:01.436Z,95764.88
2023-01-31T06:40:03.855Z,95773.16
2023-01-31T06:45:06.480Z,95757.72
2023-01-31T06:50:10.368Z,95771.69
2023-01-31T06:55:12.914Z,95761.13
2023-01-31T07:00:15.735Z,95762.09
2023-01-31T07:05:18.324Z,95753.25
2023-01-31T07:10:20.848Z,95770.03
2023-01-31T07:15:23.305Z,95763.63
2023-01-31T07:20:25.938Z,95734.72
2023-01-31T07:25:28.502Z,95759.16
2023-01-31T07:30:31.981Z,95758.06
2023-01-31T07:35:34.183Z,95771.31
2023-01-31T07:40:36.285Z,95780.47
2023-01-31T07:45:40.107Z,95786.06
2023-01-31T07:50:42.485Z,95756.50
2023-01-31T07:55:47.818Z,95777.56
2023-01-31T08:01:08.508Z,95781.34
2023-01-31T08:06:13.172Z,95804.50
2023-01-31T08:11:15.440Z,95804.47
2023-01-31T08:16:17.492Z,95797.00
2023-01-31T08:21:20.730Z,95827.50
2023-01-31T08:26:23.378Z,95794.66
2023-01-31T08:31:28.006Z,95821.16
2023-01-31T08:36:35.993Z,95802.47
2023-01-31T08:41:39.370Z,95806.19
2023-01-31T08:46:42.523Z,95818.41
2023-01-31T08:51:45.477Z,95807.28
2023-01-31T08:56:47.647Z,95821.47
2023-01-31T09:01:50.089Z,95827.31
2023-01-31T09:06:52.385Z,95812.88
2023-01-31T09:11:54.493Z,95809.91
2023-01-31T09:16:56.729Z,95817.22
2023-01-31T09:21:59.095Z,95829.47
2023-01-31T09:27:01.328Z,95823.63
2023-01-31T09:32:03.621Z,95814.72
2023-01-31T09:37:05.741Z,95810.38
2023-01-31T09:42:23.216Z,95842.19
2023-01-31T09:47:51.229Z,95847.72
2023-01-31T09:52:53.938Z,95821.34
2023-01-31T09:57:58.949Z,95812.75
2023-01-31T10:03:11.765Z,95795.19
2023-01-31T10:08:47.877Z,95793.13
2023-01-31T10:13:56.231Z,95803.94
2023-01-31T10:19:12.759Z,95793.34
2023-01-31T10:24:24.113Z,95802.28
2023-01-31T10:29:39.848Z,95796.34
2023-01-31T10:34:51.217Z,95763.56
2023-01-31T10:40:02.779Z,95766.38
2023-01-31T10:45:23.968Z,95799.84
2023-01-31T10:50:34.655Z,95790.00
2023-01-31T10:55:52.689Z,95778.06
2023-01-31T11:00:55.343Z,95765.56
2023-01-31T11:05:58.758Z,95778.56
2023-01-31T11:11:08.498Z,95754.22
2023-01-31T11:16:13.469Z,95756.56
2023-01-31T11:21:25.892Z,95761.31
2023-01-31T11:26:40.269Z,95757.59
2023-01-31T11:31:45.811Z,95780.78
2023-01-31T11:36:48.526Z,95773.84
2023-01-31T11:56:56.901Z,95759.16
2023-01-31T12:02:01.571Z,95771.06
2023-01-31T12:07:20.662Z,95780.41
2023-01-31T12:12:46.295Z,95770.22
2023-01-31T12:17:50.851Z,95777.28
2023-01-31T12:23:11.261Z,95775.66
2023-01-31T12:28:13.270Z,95772.38
2023-01-31T12:33:37.398Z,95784.09
2023-01-31T12:38:46.273Z,95773.47
2023-01-31T12:44:16.471Z,95761.38
2023-01-31T12:49:34.740Z,95785.03
2023-01-31T12:55:14.611Z,95789.63
2023-01-31T13:00:35.233Z,95794.16
2023-01-31T13:05:37.613Z,95787.94
2023-01-31T13:10:47.127Z,95786.38
2023-01-31T13:15:55.700Z,95799.25
2023-01-31T13:21:02.338Z,95785.13
2023-01-31T13:26:22.351Z,95806.94
2023-01-31T13:31:45.552Z,95814.53
2023-01-31T13:37:06.307Z,95803.34
2023-01-31T13:42:14.560Z,95794.28
2023-01-31T13:47:24.039Z,95787.47
2023-01-31T13:52:45.223Z,95809.50
2023-01-31T13:57:55.856Z,95811.06
2023-01-31T14:03:19.415Z,95829.25
2023-01-31T14:08:28.012Z,95842.47
2023-01-31T14:13:36.316Z,95848.25
2023-01-31T14:18:44.878Z,95842.53
2023-01-31T14:23:47.572Z,95832.00
2023-01-31T14:28:50.914Z,95827.41
2023-01-31T14:33:57.640Z,95832.59
2023-01-31T14:39:23.769Z,95848.44
2023-01-31T14:44:56.814Z,95859.81
2023-01-31T14:50:07.926Z,95872.59
2023-01-31T14:55:23.544Z,95882.38
2023-01-31T15:00:30.675Z,95884.91
2023-01-31T15:05:32.980Z,95909.41
2023-01-31T15:11:04.173Z,95906.44
2023-01-31T15:16:15.542Z,95925.31
2023-01-31T15:21:30.507Z,95914.00
2023-01-31T15:26:35.873Z,95912.59
2023-01-31T15:31:43.794Z,95929.50
2023-01-31T15:37:08.963Z,95931.22
2023-01-31T15:42:29.206Z,95915.53
2023-01-31T15:47:32.892Z,95928.50
2023-01-31T15:52:35.193Z,95946.13
2023-01-31T15:57:57.953Z,95945.44
2023-01-31T16:03:01.907Z,95951.28
2023-01-31T16:08:18.868Z,95958.31
2023-01-31T16:13:22.734Z,95943.94
2023-01-31T16:18:25.458Z,95958.53
2023-01-31T16:23:32.361Z,95977.44
2023-01-31T16:28:46.664Z,95973.44
2023-01-31T16:34:00.414Z,95994.81
2023-01-31T16:39:06.370Z,95984.13
2023-01-31T16:44:15.080Z,95985.13
2023-01-31T16:49:20.955Z,95987.94
2023-01-31T16:54:33.738Z,95993.91
2023-01-31T16:59:38.831Z,95998.84
2023-01-31T17:04:43.075Z,95993.81
2023-01-31T17:09:46.824Z,95999.88
2023-01-31T17:14:49.408Z,96005.75
2023-01-31T17:19:51.632Z,96012.44
2023-01-31T17:24:54.059Z,96004.16
2023-01-31T17:29:56.335Z,96011.75
2023-01-31T17:34:58.449Z,96011.81
2023-01-31T17:40:00.770Z,96001.75
2023-01-31T17:45:03.066Z,96041.66
2023-01-31T17:50:05.987Z,96000.66
2023-01-31T17:55:08.874Z,96045.50
2023-01-31T18:00:14.554Z,96046.22
2023-01-31T18:05:24.453Z,96033.28
2023-01-31T18:10:32.617Z,96038.78
2023-01-31T18:15:36.461Z,96038.47
2023-01-31T18:20:39.879Z,96047.31
2023-01-31T18:25:43.237Z,96058.19
2023-01-31T18:30:45.485Z,96044.91
2023-01-31T18:35:59.592Z,96060.41
2023-01-31T18:41:06.577Z,96051.94
2023-01-31T18:46:12.864Z,96056.47
2023-01-31T18:51:16.111Z,96049.63
2023-01-31T18:56:20.545Z,96080.47
2023-01-31T19:01:25.350Z,96098.09
2023-01-31T19:06:30.096Z,96065.34
2023-01-31T19:11:33.083Z,96088.13
2023-01-31T19:16:40.161Z,96092.28
2023-01-31T19:21:42.554Z,96086.16
2023-01-31T19:26:45.740Z,96099.06
2023-01-31T19:31:48.510Z,96090.53
2023-01-31T19:36:50.769Z,96093.91
2023-01-31T19:41:52.903Z,96097.03
2023-01-31T19:46:55.457Z,96102.19
2023-01-31T19:51:57.689Z,96101.44
2023-01-31T19:57:00.033Z,96108.34
2023-01-31T20:02:02.527Z,96108.66
2023-01-31T20:07:05.726Z,96116.41
2023-01-31T20:12:07.929Z,96130.31
2023-01-31T20:17:10.141Z,96134.53
2023-01-31T20:22:12.315Z,96130.41
2023-01-31T20:27:14.793Z,96143.28
2023-01-31T20:32:18.159Z,96137.41
2023-01-31T20:37:20.277Z,96139.06
2023-01-31T20:42:25.704Z,96132.13
2023-01-31T20:47:28.108Z,96142.22
2023-01-31T20:52:30.363Z,96155.78
2023-01-31T20:57:37.496Z,96157.56
2023-01-31T21:02:39.908Z,96131.25
2023-01-31T21:07:42.185Z,96164.66
2023-01-31T21:12:44.323Z,96165.44
2023-01-31T21:17:46.586Z,96173.13
2023-01-31T21:22:48.719Z,96157.84
2023-01-31T21:27:51.021Z,96159.59
2023-01-31T21:32:54.888Z,96168.28
2023-01-31T21:37:57.437Z,96170.19
2023-01-31T21:42:59.486Z,96173.75
2023-01-31T21:48:20.393Z,96191.09
2023-01-31T21:53:22.810Z,96188.34
2023-01-31T21:58:24.900Z,96165.34
2023-01-31T22:03:27.069Z,96176.28
2023-01-31T22:08:29.702Z,96169.34
2023-01-31T22:13:32.948Z,96165.03
2023-01-31T22:18:36.698Z,96195.06
2023-01-31T22:23:40.639Z,96188.16
2023-01-31T22:28:43.200Z,96198.69
2023-01-31T22:33:45.548Z,96188.75
2023-01-31T22:38:47.860Z,96217.03
2023-01-31T22:43:51.972Z,96204.69
2023-01-31T22:48:55.268Z,96209.66
2023-01-31T22:53:58.690Z,96208.56
2023-01-31T22:59:03.808Z,96205.94
2023-01-31T23:04:09.176Z,96215.56
2023-01-31T23:09:11.560Z,96188.09
2023-01-31T23:14:13.731Z,96192.41
2023-01-31T23:19:16.718Z,96204.22
2023-01-31T23:24:19.377Z,96211.47
2023-01-31T23:29:21.696Z,96213.88
2023-01-31T23:34:23.972Z,96226.38
2023-01-31T23:39:26.068Z,96216.25
2023-01-31T23:44:28.309Z,96204.38
2023-01-31T23:49:30.522Z,96220.41
2023-01-31T23:54:32.702Z,96200.09
2023-01-31T23:59:36.015Z,96216.22
